Time;durP1;ratioP1;P1;durP2;ratioP2;P2;SDS_P1;SDS_P2;PMS_P1;PMS_P2;Temp;Humidity;BMP_temperature;BMP_pressure;BME280_temperature;BME280_humidity;BME280_pressure;Samples;Min_cycle;Max_cycle;Signal;HPM_P1;HPM_P2
2022/01/21 00:01:24;;;;;;;;;8.00;5.25;;;;;5.30;67.66;103012.28;5038329;28;45418;-62
2022/01/21 00:03:50;;;;;;;;;6.75;5.00;;;;;5.30;67.11;103017.56;5054968;28;45439;-64
2022/01/21 00:06:16;;;;;;;;;6.50;4.00;;;;;5.20;68.01;103021.03;5056502;28;45363;-61
2022/01/21 00:08:44;;;;;;;;;8.75;6.25;;;;;5.19;67.34;103016.63;5055933;28;45221;-63
2022/01/21 00:11:11;;;;;;;;;3.50;3.50;;;;;5.26;67.53;103018.44;5056125;28;45376;-63
2022/01/21 00:13:37;;;;;;;;;9.75;7.00;;;;;5.26;67.51;103017.56;5033414;28;45394;-63
2022/01/21 00:16:18;;;;;;;;;12.00;5.00;;;;;5.19;68.04;103019.28;5042039;28;45404;-63
2022/01/21 00:19:01;;;;;;;;;9.25;5.00;;;;;5.14;68.30;103002.56;5056055;28;45209;-64
2022/01/21 00:32:26;;;;;;;;;6.00;5.00;;;;;4.96;69.16;102997.19;5047281;28;45280;-63
2022/01/21 00:34:51;;;;;;;;;7.50;6.00;;;;;4.95;68.49;103003.34;5056070;28;46277;-62
2022/01/21 00:37:17;;;;;;;;;7.75;7.00;;;;;4.82;69.38;102996.19;5055444;28;45226;-64
2022/01/21 00:39:49;;;;;;;;;8.50;8.50;;;;;4.88;69.47;103001.53;5038157;28;45296;-61
2022/01/21 00:42:34;;;;;;;;;8.00;7.00;;;;;4.85;69.60;102994.50;5037852;28;45557;-62
2022/01/21 00:45:00;;;;;;;;;6.75;6.75;;;;;4.86;69.16;102992.72;5056469;28;45994;-62
2022/01/21 00:47:29;;;;;;;;;8.00;6.50;;;;;5.00;69.18;102993.69;5054933;28;45315;-60
2022/01/21 00:49:55;;;;;;;;;7.00;4.50;;;;;5.02;68.41;102989.31;5056124;28;45371;-62
2022/01/21 00:52:21;;;;;;;;;10.00;7.75;;;;;4.97;68.34;102991.03;5036075;28;45327;-63
2022/01/21 00:54:46;;;;;;;;;8.75;6.00;;;;;4.95;68.77;102987.53;5055025;28;47128;-63
2022/01/21 00:57:12;;;;;;;;;7.25;6.50;;;;;4.99;69.28;102991.94;5055204;28;45448;-60
2022/01/21 00:59:37;;;;;;;;;6.00;4.00;;;;;5.07;68.17;103003.38;5055950;28;45510;-60
2022/01/21 01:02:04;;;;;;;;;10.25;5.00;;;;;5.05;68.66;103005.13;5055595;28;45566;-62
2022/01/21 01:04:30;;;;;;;;;11.00;6.00;;;;;5.09;67.86;103004.28;5054857;28;45324;-64
2022/01/21 01:06:56;;;;;;;;;7.00;5.00;;;;;5.00;68.72;102997.22;5055034;28;45373;-60
2022/01/21 01:09:21;;;;;;;;;8.50;5.00;;;;;4.98;69.39;102992.81;5055846;28;45225;-63
2022/01/21 01:22:23;;;;;;;;;8.25;5.50;;;;;4.80;69.95;102995.31;5037832;28;45500;-63
2022/01/21 01:27:50;;;;;;;;;16.25;8.00;;;;;4.88;68.95;102986.59;5007669;28;45732;-62
2022/01/21 01:30:18;;;;;;;;;6.50;6.00;;;;;4.81;69.42;102989.16;5041798;28;45324;-64
2022/01/21 01:32:46;;;;;;;;;6.00;3.00;;;;;4.78;69.48;102978.63;5037567;28;45591;-62
2022/01/21 01:35:15;;;;;;;;;6.25;3.25;;;;;4.69;69.67;102980.34;5054680;28;46990;-61
2022/01/21 01:40:20;;;;;;;;;8.50;7.50;;;;;4.62;69.45;102989.06;5056717;28;45258;-62
2022/01/21 01:50:42;;;;;;;;;5.00;5.00;;;;;4.72;69.96;102990.91;5008587;28;45483;-62
2022/01/21 01:53:08;;;;;;;;;8.75;5.50;;;;;4.69;69.48;102995.28;5057266;28;45539;-61
2022/01/21 01:55:35;;;;;;;;;7.25;7.25;;;;;4.62;69.65;103002.25;5058425;28;46012;-61
2022/01/21 01:58:00;;;;;;;;;7.00;7.00;;;;;4.56;69.87;103004.84;5058046;28;45380;-61
2022/01/21 02:00:26;;;;;;;;;17.50;7.00;;;;;4.58;69.72;103003.09;5040342;28;45698;-63
2022/01/21 02:02:51;;;;;;;;;4.00;1.75;;;;;4.65;69.90;103006.66;5058449;28;45525;-62
2022/01/21 02:05:17;;;;;;;;;6.00;4.00;;;;;4.63;69.69;103005.75;5058003;28;45463;-62
2022/01/21 02:07:42;;;;;;;;;7.75;5.50;;;;;4.64;69.86;103007.53;5039720;28;45384;-62
2022/01/21 02:10:08;;;;;;;;;7.50;7.00;;;;;4.38;70.35;102983.59;5056914;28;45351;-64
2022/01/21 02:12:34;;;;;;;;;4.00;4.00;;;;;4.50;70.69;103014.44;5058715;28;45405;-63
2022/01/21 02:15:01;;;;;;;;;6.50;4.00;;;;;4.49;70.67;103000.38;5039965;28;46120;-62
2022/01/21 02:22:44;;;;;;;;;12.25;4.50;;;;;4.42;70.31;103012.63;5057823;28;45462;-61
2022/01/21 02:25:19;;;;;;;;;10.25;7.00;;;;;4.45;70.01;103011.78;5038379;28;48322;-61
2022/01/21 02:27:49;;;;;;;;;11.50;5.00;;;;;4.44;70.52;103003.00;5041010;28;45403;-61
2022/01/21 02:30:19;;;;;;;;;4.00;4.00;;;;;4.43;70.62;102998.59;5057497;28;45287;-62
2022/01/21 02:32:50;;;;;;;;;7.00;4.25;;;;;4.35;71.07;103013.44;5057069;28;45475;-61
2022/01/21 02:35:17;;;;;;;;;5.00;5.00;;;;;4.37;70.78;103006.44;5056998;28;45647;-61
2022/01/21 02:37:43;;;;;;;;;10.00;4.75;;;;;4.35;70.48;102995.00;5057699;28;45465;-60
2022/01/21 02:40:10;;;;;;;;;7.25;7.25;;;;;4.30;71.24;103001.13;5039272;28;45236;-62
2022/01/21 02:42:39;;;;;;;;;10.00;5.00;;;;;4.23;71.20;103015.09;5058270;28;45656;-60
2022/01/21 02:45:06;;;;;;;;;10.75;4.50;;;;;4.22;71.37;103003.69;5039392;28;46428;-61
2022/01/21 02:47:32;;;;;;;;;10.75;7.00;;;;;4.31;70.81;103008.16;5057955;28;45284;-63
2022/01/21 02:49:57;;;;;;;;;9.50;6.50;;;;;4.35;71.02;103002.03;5037872;28;45580;-63
2022/01/21 02:52:27;;;;;;;;;9.00;7.00;;;;;4.31;71.21;103008.16;5057598;28;45359;-62
2022/01/21 02:54:52;;;;;;;;;7.00;4.25;;;;;4.25;71.60;102995.81;5039750;28;45992;-63
2022/01/21 02:57:18;;;;;;;;;4.75;4.75;;;;;4.28;71.36;103002.84;5056404;28;45148;-64
2022/01/21 02:59:44;;;;;;;;;4.00;4.00;;;;;4.24;71.41;102999.31;5057325;28;45343;-61
2022/01/21 03:02:10;;;;;;;;;4.25;4.25;;;;;4.21;71.41;103008.94;5057375;28;46152;-60
2022/01/21 03:07:07;;;;;;;;;8.00;5.00;;;;;4.09;72.21;103017.59;5054794;28;45683;-61
2022/01/21 03:09:33;;;;;;;;;6.50;6.50;;;;;4.15;71.67;103012.38;5039231;28;45379;-61
2022/01/21 03:11:58;;;;;;;;;12.00;5.00;;;;;4.10;71.96;103008.84;5057658;28;45304;-61
2022/01/21 03:14:24;;;;;;;;;4.75;4.75;;;;;4.06;71.85;103005.31;5056439;28;46247;-60
2022/01/21 03:16:49;;;;;;;;;7.75;6.00;;;;;4.04;71.81;102999.16;5056407;28;45343;-60
2022/01/21 03:19:15;;;;;;;;;5.50;5.50;;;;;4.02;71.73;103000.84;5029248;28;45476;-61
2022/01/21 03:21:40;;;;;;;;;9.50;8.25;;;;;4.08;71.76;103000.03;5037362;28;45494;-61
2022/01/21 03:24:07;;;;;;;;;4.75;4.00;;;;;4.10;71.67;103012.34;5030518;28;45418;-61
2022/01/21 03:26:33;;;;;;;;;9.00;6.00;;;;;4.12;71.39;103018.50;5056589;28;45481;-62
2022/01/21 03:29:01;;;;;;;;;7.00;7.00;;;;;4.13;71.95;103020.28;5057260;28;45355;-60
2022/01/21 03:31:26;;;;;;;;;8.25;6.50;;;;;4.19;71.50;103023.84;5056738;28;45435;-64
2022/01/21 03:33:52;;;;;;;;;9.50;6.00;;;;;4.15;71.47;103018.53;5055962;28;45387;-61
2022/01/21 03:36:18;;;;;;;;;7.00;7.00;;;;;4.10;71.50;103020.25;5056864;28;45244;-62
2022/01/21 03:38:43;;;;;;;;;7.25;4.25;;;;;4.05;71.97;103027.25;5056060;28;45395;-59
2022/01/21 03:41:09;;;;;;;;;11.50;8.25;;;;;4.11;71.63;103024.66;5039014;28;45310;-60
2022/01/21 03:43:35;;;;;;;;;1.00;1.00;;;;;4.16;71.66;103022.03;5038825;28;46237;-63
2022/01/21 03:46:02;;;;;;;;;8.50;8.50;;;;;4.17;71.21;103023.84;5038218;28;45447;-62
2022/01/21 03:48:28;;;;;;;;;7.50;7.50;;;;;4.24;71.06;103027.41;5056773;28;45414;-62
2022/01/21 03:50:53;;;;;;;;;11.00;7.25;;;;;4.26;71.34;103021.28;5056498;28;45441;-63
2022/01/21 03:53:19;;;;;;;;;5.00;5.00;;;;;4.20;71.17;103022.97;5055785;28;46074;-63
2022/01/21 03:55:45;;;;;;;;;7.00;7.00;;;;;4.27;70.80;103025.66;5038129;28;45454;-62
2022/01/21 03:58:12;;;;;;;;;8.00;5.00;;;;;4.31;70.28;103016.94;5018641;28;45244;-61
2022/01/21 04:00:50;;;;;;;;;5.00;4.00;;;;;4.34;71.22;103018.72;5023282;28;45254;-61
2022/01/21 04:03:15;;;;;;;;;8.00;5.50;;;;;4.33;71.28;103019.59;5056516;28;45491;-63
2022/01/21 04:05:41;;;;;;;;;10.75;6.00;;;;;4.31;70.88;103014.31;5038104;28;45449;-61
2022/01/21 04:08:09;;;;;;;;;8.25;7.00;;;;;4.28;71.22;103019.53;5056995;28;45441;-62
2022/01/21 04:10:35;;;;;;;;;7.25;7.25;;;;;4.33;70.63;103027.50;5056330;28;45405;-61
2022/01/21 04:13:03;;;;;;;;;14.00;6.50;;;;;4.30;70.63;103019.56;5055014;28;45372;-64
2022/01/21 04:15:28;;;;;;;;;6.50;6.00;;;;;4.32;70.60;103023.09;5037237;28;45482;-62
2022/01/21 04:17:54;;;;;;;;;5.00;5.00;;;;;4.24;71.46;103014.22;5056504;28;45256;-63
2022/01/21 04:20:19;;;;;;;;;6.50;6.50;;;;;4.23;70.94;103033.53;5055998;28;45488;-62
2022/01/21 04:22:45;;;;;;;;;7.00;6.50;;;;;4.14;71.67;103035.19;5037495;28;45940;-64
2022/01/21 04:25:12;;;;;;;;;7.00;4.00;;;;;4.13;71.51;103041.34;5056350;28;45491;-62
2022/01/21 04:27:37;;;;;;;;;4.25;4.25;;;;;4.03;71.49;103038.59;5055650;28;45445;-63
2022/01/21 04:30:05;;;;;;;;;14.50;5.00;;;;;4.04;71.48;103036.00;5056268;28;45877;-62
2022/01/21 04:32:31;;;;;;;;;6.00;5.50;;;;;4.09;71.87;103036.03;5037395;28;45984;-61
2022/01/21 04:34:56;;;;;;;;;15.75;6.00;;;;;4.11;71.63;103042.19;5034419;28;45336;-62
2022/01/21 04:37:22;;;;;;;;;9.25;4.25;;;;;4.13;71.17;103036.06;5054092;28;45247;-62
2022/01/21 04:40:12;;;;;;;;;7.75;4.00;;;;;4.15;71.47;103038.72;5056334;28;45463;-61
2022/01/21 04:48:01;;;;;;;;;7.25;7.25;;;;;4.18;71.59;103043.16;5054966;28;45445;-63
2022/01/21 04:50:27;;;;;;;;;7.75;7.00;;;;;4.13;71.96;103045.72;5056345;28;45322;-62
2022/01/21 04:52:53;;;;;;;;;11.50;8.50;;;;;4.11;71.92;103024.66;5055419;28;45526;-62
2022/01/21 04:55:19;;;;;;;;;12.75;4.00;;;;;4.10;71.66;103024.63;5055442;28;45448;-64
2022/01/21 04:57:44;;;;;;;;;7.25;7.25;;;;;4.13;71.96;103025.53;5037380;28;45312;-61
2022/01/21 05:00:11;;;;;;;;;4.50;4.25;;;;;4.22;71.03;103037.91;5026922;28;45845;-64
2022/01/21 05:02:36;;;;;;;;;7.00;7.00;;;;;4.19;71.15;103045.81;5037210;28;47440;-61
2022/01/21 05:05:03;;;;;;;;;11.25;7.00;;;;;4.21;71.52;103048.44;5035592;28;45263;-63
2022/01/21 05:07:33;;;;;;;;;8.00;6.00;;;;;4.21;71.64;103048.44;5049662;28;45457;-61
2022/01/21 05:09:58;;;;;;;;;7.75;6.50;;;;;4.15;71.83;103047.50;5032177;28;45901;-64
2022/01/21 05:12:25;;;;;;;;;8.25;7.50;;;;;4.17;71.94;103049.25;5018561;28;48195;-63
2022/01/21 05:17:16;;;;;;;;;13.25;8.50;;;;;4.23;71.31;103052.84;5058247;28;45351;-62
2022/01/21 05:19:43;;;;;;;;;9.00;7.00;;;;;4.28;71.01;103045.00;5059837;28;45448;-64
2022/01/21 05:22:08;;;;;;;;;5.50;5.50;;;;;4.25;70.91;103044.97;5058385;28;46281;-63
2022/01/21 05:24:34;;;;;;;;;10.00;7.50;;;;;4.26;71.46;103046.72;5059170;28;45504;-62
2022/01/21 05:27:01;;;;;;;;;7.00;6.00;;;;;4.28;71.48;103042.34;5057950;28;45401;-64
2022/01/21 05:29:31;;;;;;;;;6.00;6.00;;;;;4.21;71.69;103040.53;5059351;28;45506;-62
2022/01/21 05:31:57;;;;;;;;;10.00;7.75;;;;;4.20;71.44;103041.41;5058557;28;46356;-62
2022/01/21 05:34:23;;;;;;;;;5.00;5.00;;;;;4.30;71.07;103059.09;5040861;28;45392;-63
2022/01/21 05:36:49;;;;;;;;;8.25;4.00;;;;;4.27;71.59;103054.63;5058055;28;45363;-63
2022/01/21 05:39:16;;;;;;;;;10.00;5.00;;;;;4.23;71.32;103051.97;5059512;28;45503;-63
2022/01/21 05:41:48;;;;;;;;;7.00;7.00;;;;;4.24;71.24;103056.38;5058734;28;45688;-63
2022/01/21 05:47:08;;;;;;;;;9.50;7.00;;;;;4.21;70.81;103053.72;5019726;28;45546;-65
2022/01/21 05:49:35;;;;;;;;;5.00;5.00;;;;;4.15;71.50;103055.41;5059128;28;45662;-64
2022/01/21 05:52:17;;;;;;;;;5.00;5.00;;;;;4.19;70.79;103058.97;5058505;28;45390;-64
2022/01/21 05:54:44;;;;;;;;;7.50;7.50;;;;;4.17;71.36;103062.44;5058573;28;45495;-64
2022/01/21 05:57:13;;;;;;;;;8.00;5.50;;;;;4.13;70.81;103057.16;5058063;28;45365;-63
2022/01/21 05:59:39;;;;;;;;;8.00;6.00;;;;;4.20;71.34;103080.94;5057718;28;45357;-63
2022/01/21 06:02:05;;;;;;;;;6.50;5.00;;;;;4.15;71.18;103065.06;5057446;28;45454;-63
2022/01/21 06:04:33;;;;;;;;;5.75;4.75;;;;;4.21;71.17;103064.25;5040458;28;45367;-64
2022/01/21 06:07:00;;;;;;;;;7.75;4.75;;;;;4.17;71.55;103062.44;5056330;28;45450;-63
2022/01/21 06:09:26;;;;;;;;;4.50;4.25;;;;;4.16;71.56;103061.56;5058647;28;45628;-62
2022/01/21 06:11:52;;;;;;;;;4.00;4.00;;;;;4.23;71.41;103078.31;5058499;28;45231;-63
2022/01/21 06:14:18;;;;;;;;;8.75;7.00;;;;;4.28;70.59;103079.22;5040159;28;45432;-61
2022/01/21 06:16:43;;;;;;;;;11.25;6.00;;;;;4.35;70.61;103081.06;5057871;28;45541;-63
2022/01/21 06:19:09;;;;;;;;;6.50;6.50;;;;;4.44;70.04;103084.69;5058261;28;45303;-63
2022/01/21 06:21:34;;;;;;;;;5.00;5.00;;;;;4.45;70.68;103090.84;5038017;28;46597;-63
2022/01/21 06:23:59;;;;;;;;;8.50;7.00;;;;;4.47;70.71;103090.84;5056862;28;45241;-63
2022/01/21 06:26:25;;;;;;;;;7.00;5.00;;;;;4.41;70.54;103078.47;5057966;28;45339;-62
2022/01/21 06:28:50;;;;;;;;;9.25;7.00;;;;;4.44;70.87;103083.78;5058614;28;45510;-64
2022/01/21 06:31:16;;;;;;;;;15.75;13.00;;;;;4.40;70.29;103066.16;5058270;28;45420;-63
2022/01/21 06:33:41;;;;;;;;;8.75;5.50;;;;;4.49;70.18;103082.06;5038441;28;45489;-64
2022/01/21 06:36:07;;;;;;;;;8.00;6.50;;;;;4.47;70.73;103073.28;5039486;28;45798;-62
2022/01/21 06:38:32;;;;;;;;;7.50;7.50;;;;;4.51;70.31;103084.72;5057224;28;45513;-62
2022/01/21 06:40:58;;;;;;;;;9.25;6.00;;;;;4.44;70.31;103068.00;5057702;28;45398;-63
2022/01/21 06:43:23;;;;;;;;;10.75;9.75;;;;;4.52;70.53;103082.09;5057483;28;45418;-60
2022/01/21 06:45:49;;;;;;;;;13.50;8.25;;;;;4.55;70.25;103087.38;5039910;28;45426;-63
2022/01/21 06:48:14;;;;;;;;;11.75;9.50;;;;;4.55;69.83;103086.50;5039856;28;45402;-63
2022/01/21 06:50:42;;;;;;;;;8.75;7.75;;;;;4.57;69.50;103090.94;5056026;28;46155;-62
2022/01/21 06:53:08;;;;;;;;;7.25;5.00;;;;;4.51;70.23;103095.25;5057072;28;45248;-63
2022/01/21 06:55:34;;;;;;;;;5.00;5.00;;;;;4.46;70.46;103096.97;5057680;28;45406;-62
2022/01/21 06:57:59;;;;;;;;;7.75;6.25;;;;;4.46;70.35;103103.13;5055791;28;45529;-62
2022/01/21 07:00:25;;;;;;;;;8.25;4.50;;;;;4.49;70.55;103103.16;5055509;28;45623;-69
2022/01/21 07:02:53;;;;;;;;;11.75;7.50;;;;;4.64;69.88;103108.56;5057020;28;45277;-60
2022/01/21 07:05:22;;;;;;;;;11.00;4.00;;;;;4.72;69.65;103106.00;5056847;28;45605;-63
2022/01/21 07:07:48;;;;;;;;;10.25;5.00;;;;;4.59;69.77;103099.75;5054209;28;45582;-63
2022/01/21 07:10:15;;;;;;;;;7.75;7.75;;;;;4.62;69.72;103098.88;5038116;28;46948;-61
2022/01/21 07:12:42;;;;;;;;;10.00;4.00;;;;;4.72;69.14;103106.00;5056047;28;45395;-61
2022/01/21 07:15:09;;;;;;;;;11.50;7.75;;;;;4.76;69.39;103117.44;5056908;28;45588;-61
2022/01/21 07:17:35;;;;;;;;;7.50;4.25;;;;;4.73;69.34;103124.47;5038883;28;45616;-62
2022/01/21 07:20:01;;;;;;;;;7.25;7.00;;;;;4.74;69.66;103134.13;5056200;28;45742;-61
2022/01/21 07:22:27;;;;;;;;;7.75;5.00;;;;;4.71;69.69;103104.25;5056258;28;45474;-63
2022/01/21 07:24:52;;;;;;;;;6.00;5.00;;;;;4.82;69.90;103122.75;5037127;28;45264;-64
2022/01/21 07:27:18;;;;;;;;;8.75;5.50;;;;;4.87;69.15;103121.94;5055521;28;45441;-71
2022/01/21 07:29:44;;;;;;;;;7.00;7.00;;;;;4.80;69.44;103113.94;5053931;28;45396;-69
2022/01/21 07:32:09;;;;;;;;;8.50;7.25;;;;;4.93;69.10;103129.88;5035971;28;45296;-70
2022/01/21 07:34:35;;;;;;;;;11.00;9.50;;;;;4.96;69.13;103126.41;5035416;28;45506;-59
2022/01/21 07:37:01;;;;;;;;;10.25;8.00;;;;;5.00;69.11;103129.06;5055019;28;45616;-72
2022/01/21 07:39:26;;;;;;;;;12.25;9.50;;;;;5.06;69.42;103133.50;5056728;28;45646;-71
2022/01/21 07:41:52;;;;;;;;;8.00;8.00;;;;;5.14;68.49;103133.56;5055998;28;45524;-66
2022/01/21 07:44:18;;;;;;;;;5.75;5.00;;;;;5.06;69.00;103127.34;5057305;28;45293;-70
2022/01/21 07:46:45;;;;;;;;;5.00;5.00;;;;;4.96;68.83;103139.59;5056131;28;45576;-68
2022/01/21 07:49:18;;;;;;;;;11.00;7.50;;;;;4.92;68.88;103145.69;5055724;28;45510;-67
2022/01/21 07:51:44;;;;;;;;;7.75;7.75;;;;;4.96;69.46;103145.75;5037373;28;45566;-67
2022/01/21 07:54:11;;;;;;;;;7.25;5.50;;;;;4.96;68.99;103142.22;5056363;28;45402;-62
2022/01/21 07:56:36;;;;;;;;;5.00;5.00;;;;;5.01;69.32;103151.06;5038319;28;46090;-69
2022/01/21 07:59:05;;;;;;;;;7.00;7.00;;;;;5.01;68.80;103151.06;5056338;28;45326;-63
2022/01/21 08:01:31;;;;;;;;;7.00;7.00;;;;;5.12;68.78;103157.28;5056112;28;45383;-66
2022/01/21 08:03:56;;;;;;;;;9.25;9.25;;;;;5.12;68.31;103154.66;5055873;28;45292;-62
2022/01/21 08:06:23;;;;;;;;;9.00;7.50;;;;;5.17;68.61;103163.47;5056439;28;45379;-64
2022/01/21 08:08:48;;;;;;;;;7.00;7.00;;;;;5.21;68.34;103167.94;5054911;28;45490;-63
2022/01/21 08:11:14;;;;;;;;;14.50;5.00;;;;;5.25;67.94;103166.19;5055821;28;45522;-63
2022/01/21 08:13:39;;;;;;;;;11.00;7.00;;;;;5.26;68.01;103163.56;5056176;28;45331;-66
2022/01/21 08:16:05;;;;;;;;;11.00;8.50;;;;;5.26;68.42;103173.22;5056250;28;45347;-65
2022/01/21 08:18:30;;;;;;;;;15.00;13.00;;;;;5.29;67.71;103174.13;5055903;28;45492;-69
2022/01/21 08:20:56;;;;;;;;;18.25;11.00;;;;;5.29;67.41;103173.25;5055203;28;45494;-67
2022/01/21 08:23:22;;;;;;;;;10.50;9.25;;;;;5.25;67.62;103177.63;5038421;28;45383;-70
2022/01/21 08:25:47;;;;;;;;;10.00;9.50;;;;;5.25;67.85;103167.06;5055687;28;45428;-70
2022/01/21 08:28:13;;;;;;;;;10.50;7.00;;;;;5.32;68.11;103174.13;5055113;28;45499;-66
2022/01/21 08:30:39;;;;;;;;;9.50;8.00;;;;;5.40;68.37;103170.69;5054410;28;45442;-66
2022/01/21 08:33:07;;;;;;;;;5.50;5.50;;;;;5.45;67.77;103163.66;5054755;28;45182;-61
2022/01/21 08:35:36;;;;;;;;;7.00;7.00;;;;;5.46;67.68;103165.41;5037780;28;45501;-62
2022/01/21 08:38:03;;;;;;;;;12.25;9.50;;;;;5.50;68.02;103159.31;5037560;28;48296;-65
2022/01/21 08:40:29;;;;;;;;;7.75;7.25;;;;;5.56;68.26;103181.34;5037564;28;45264;-63
2022/01/21 08:42:55;;;;;;;;;14.50;8.00;;;;;5.59;67.49;103175.19;5055879;28;45298;-64
2022/01/21 08:45:21;;;;;;;;;11.25;9.25;;;;;5.65;67.37;103177.00;5056144;28;45498;-67
2022/01/21 08:47:47;;;;;;;;;10.00;9.00;;;;;5.61;67.86;103154.97;5054768;28;45507;-67
2022/01/21 08:50:17;;;;;;;;;28.25;19.50;;;;;5.69;67.05;103174.38;5055601;28;45423;-68
2022/01/21 08:52:43;;;;;;;;;18.50;8.00;;;;;5.71;67.49;103177.00;5054484;28;45354;-66
2022/01/21 08:55:11;;;;;;;;;11.25;6.25;;;;;5.70;67.36;103165.56;5055909;28;45415;-67
2022/01/21 08:57:40;;;;;;;;;18.75;11.75;;;;;5.51;67.57;103161.06;5055351;28;46129;-69
2022/01/21 09:00:12;;;;;;;;;15.25;13.00;;;;;5.58;68.29;103170.78;5055815;28;45456;-67
2022/01/21 09:02:38;;;;;;;;;9.50;9.50;;;;;5.65;67.96;103171.72;5055669;28;45473;-70
2022/01/21 09:05:04;;;;;;;;;11.75;8.25;;;;;5.68;68.04;103171.72;5037797;28;45612;-67
2022/01/21 09:07:30;;;;;;;;;10.50;8.00;;;;;5.74;66.77;103171.78;5055600;28;45409;-66
2022/01/21 09:09:56;;;;;;;;;9.50;9.00;;;;;5.57;68.00;103163.72;5037767;28;45935;-64
2022/01/21 09:12:21;;;;;;;;;7.75;7.75;;;;;5.63;67.83;103180.50;5056030;28;45393;-69
2022/01/21 09:14:47;;;;;;;;;10.75;10.75;;;;;5.74;67.13;103171.78;5055721;28;45557;-69
2022/01/21 09:17:13;;;;;;;;;10.50;8.25;;;;;5.81;67.83;103190.28;5055287;28;46054;-66
2022/01/21 09:19:39;;;;;;;;;22.75;16.25;;;;;5.87;67.54;103184.16;5037108;28;45529;-64
2022/01/21 09:22:04;;;;;;;;;9.00;7.00;;;;;5.91;66.98;103186.84;5055599;28;44689;-69
2022/01/21 09:24:31;;;;;;;;;12.50;11.25;;;;;5.98;67.88;103192.13;5055687;28;45446;-69
2022/01/21 09:26:57;;;;;;;;;20.75;13.75;;;;;5.98;67.47;103181.56;5037343;28;47207;-66
2022/01/21 09:29:23;;;;;;;;;23.25;14.50;;;;;6.00;67.33;103187.78;5055532;28;45401;-64
2022/01/21 09:31:48;;;;;;;;;19.25;12.00;;;;;6.00;67.10;103200.97;5055454;28;45479;-71
2022/01/21 09:34:15;;;;;;;;;12.25;10.50;;;;;5.99;66.99;103200.09;5037179;28;45671;-67
2022/01/21 09:36:42;;;;;;;;;21.00;11.00;;;;;5.99;67.25;103200.09;5036928;28;45552;-70
2022/01/21 09:39:08;;;;;;;;;12.25;11.75;;;;;6.01;67.18;103210.66;5054699;28;45952;-69
2022/01/21 09:41:34;;;;;;;;;13.00;6.50;;;;;5.88;67.70;103205.28;5037050;28;45280;-68
2022/01/21 09:44:02;;;;;;;;;17.75;11.25;;;;;6.00;67.02;103216.84;5054272;28;45460;-70
2022/01/21 09:46:36;;;;;;;;;15.50;13.25;;;;;6.07;67.23;103218.59;5036937;28;46182;-66
2022/01/21 09:51:56;;;;;;;;;16.75;12.25;;;;;6.11;67.51;103236.22;5055139;28;45418;-68
2022/01/21 09:54:24;;;;;;;;;10.25;5.00;;;;;6.08;67.09;103223.91;5037105;28;45513;-69
2022/01/21 09:56:52;;;;;;;;;20.75;16.25;;;;;6.05;67.33;103230.94;5054489;28;46221;-70
2022/01/21 09:59:19;;;;;;;;;12.00;10.50;;;;;5.79;68.73;103207.88;5055415;28;45718;-71
2022/01/21 10:01:54;;;;;;;;;11.50;11.50;;;;;5.97;67.91;103244.09;5040317;28;45288;-66
2022/01/21 10:04:25;;;;;;;;;10.50;8.00;;;;;6.00;68.62;103228.28;5040338;28;45746;-65
2022/01/21 10:06:51;;;;;;;;;9.00;9.00;;;;;5.96;68.15;103242.31;5040206;28;45424;-67
2022/01/21 10:09:20;;;;;;;;;14.00;10.50;;;;;5.90;68.51;103243.19;5058373;28;45296;-69
2022/01/21 10:11:49;;;;;;;;;14.75;12.00;;;;;5.98;68.57;103237.94;5040185;28;45343;-66
2022/01/21 10:14:17;;;;;;;;;16.25;16.00;;;;;5.97;68.60;103233.53;5058580;28;45363;-66
2022/01/21 10:16:43;;;;;;;;;17.75;16.00;;;;;6.14;68.34;103242.44;5058148;28;45545;-71
2022/01/21 10:19:11;;;;;;;;;19.00;12.50;;;;;6.11;68.53;103225.66;5057863;28;45352;-71
2022/01/21 10:21:40;;;;;;;;;18.00;16.25;;;;;6.04;68.22;103229.16;5023697;28;45372;-71
2022/01/21 10:24:13;;;;;;;;;18.50;16.00;;;;;6.16;67.69;103235.38;5058402;28;45561;-68
2022/01/21 10:26:53;;;;;;;;;24.25;17.75;;;;;6.12;68.66;103228.34;5057883;28;45782;-70
2022/01/21 10:29:19;;;;;;;;;17.00;12.25;;;;;6.22;67.88;103237.16;5058101;28;45296;-70
2022/01/21 10:31:54;;;;;;;;;20.00;20.00;;;;;6.25;67.46;103234.56;5058005;28;45218;-70
2022/01/21 10:34:33;;;;;;;;;22.50;16.75;;;;;6.35;67.53;103241.63;5039893;28;45245;-69
2022/01/21 10:37:06;;;;;;;;;13.75;12.00;;;;;6.39;67.32;103248.72;5058148;28;45464;-69
2022/01/21 10:39:34;;;;;;;;;21.25;15.25;;;;;6.39;67.66;103238.13;5057470;28;45323;-71
2022/01/21 10:42:01;;;;;;;;;15.25;12.50;;;;;6.26;67.49;103244.25;5058183;28;45331;-69
2022/01/21 10:44:30;;;;;;;;;11.50;8.50;;;;;6.21;67.13;103238.03;5039853;28;45269;-66
2022/01/21 10:47:07;;;;;;;;;20.25;13.25;;;;;6.15;67.71;103238.91;5057814;28;46166;-67
2022/01/21 10:49:34;;;;;;;;;17.25;9.25;;;;;6.21;66.96;103232.75;5057438;28;45477;-65
2022/01/21 10:51:59;;;;;;;;;17.25;15.25;;;;;6.19;67.26;103229.22;5058020;28;45450;-67
2022/01/21 10:54:29;;;;;;;;;15.75;13.50;;;;;6.31;67.91;103236.34;5057616;28;45535;-71
2022/01/21 10:57:12;;;;;;;;;16.00;11.00;;;;;6.28;67.32;103224.00;5057614;28;46331;-69
2022/01/21 10:59:58;;;;;;;;;19.50;16.25;;;;;6.36;66.88;103227.53;5057324;28;45245;-70
2022/01/21 11:02:34;;;;;;;;;17.75;12.50;;;;;6.39;66.42;103231.97;5039264;28;45362;-66
2022/01/21 11:05:15;;;;;;;;;13.75;12.25;;;;;6.36;67.25;103230.16;5057678;28;45252;-74
2022/01/21 11:07:48;;;;;;;;;15.00;12.00;;;;;6.39;67.25;103222.28;5038872;28;47129;-70
2022/01/21 11:10:31;;;;;;;;;15.00;15.00;;;;;6.37;66.61;103231.94;5056786;28;45451;-73
2022/01/21 11:13:13;;;;;;;;;15.75;14.50;;;;;6.31;67.36;103218.72;5039301;28;45544;-66
2022/01/21 11:15:49;;;;;;;;;15.50;12.75;;;;;6.45;66.65;103230.22;5057697;28;45254;-72
2022/01/21 11:18:18;;;;;;;;;15.75;10.00;;;;;6.50;66.85;103228.44;5057260;28;46046;-74
2022/01/21 11:20:48;;;;;;;;;15.50;13.00;;;;;6.59;66.79;103224.06;5057048;28;45307;-68
2022/01/21 11:23:15;;;;;;;;;17.75;17.25;;;;;6.67;66.07;103225.00;5039053;28;45394;-68
2022/01/21 11:25:48;;;;;;;;;11.50;11.50;;;;;6.69;66.13;103226.75;5039192;28;45208;-72
2022/01/21 11:28:21;;;;;;;;;17.25;13.00;;;;;6.67;66.29;103228.50;5038621;28;47011;-69
2022/01/21 11:30:47;;;;;;;;;18.00;11.25;;;;;6.56;65.71;103218.78;5056864;28;45498;-67
2022/01/21 11:33:13;;;;;;;;;16.00;13.75;;;;;6.65;66.41;103224.09;5056543;28;45335;-66
2022/01/21 11:35:39;;;;;;;;;19.00;14.25;;;;;6.70;66.04;103212.66;5057168;28;45513;-69
2022/01/21 11:38:07;;;;;;;;;12.25;12.25;;;;;6.74;66.46;103221.47;5056739;28;45244;-66
2022/01/21 11:40:33;;;;;;;;;20.50;16.50;;;;;6.76;65.49;103217.06;5057131;28;45301;-69
2022/01/21 11:42:58;;;;;;;;;12.25;11.00;;;;;6.83;65.41;103217.97;5056993;28;45393;-67
2022/01/21 11:50:50;;;;;;;;;12.75;9.00;;;;;6.93;64.31;103202.09;5009519;28;45461;-68
2022/01/21 11:53:49;;;;;;;;;11.75;11.75;;;;;6.82;65.91;103195.91;5038482;28;45383;-69
2022/01/21 11:56:47;;;;;;;;;17.75;13.50;;;;;7.05;65.24;103210.06;5056707;28;45494;-72
2022/01/21 11:59:38;;;;;;;;;15.00;10.75;;;;;7.15;65.56;103208.25;5056159;28;46347;-67
2022/01/21 12:02:15;;;;;;;;;12.50;12.00;;;;;7.27;64.88;103202.97;5038667;28;45467;-68
2022/01/21 12:04:45;;;;;;;;;8.25;8.00;;;;;7.35;64.20;103205.63;5056419;28;45429;-69
2022/01/21 12:07:36;;;;;;;;;9.00;9.00;;;;;7.33;64.05;103217.97;5038407;28;45250;-68
2022/01/21 12:10:10;;;;;;;;;11.00;9.50;;;;;7.40;64.20;103201.19;5056425;28;46072;-71
2022/01/21 12:12:45;;;;;;;;;15.25;8.00;;;;;7.31;63.22;103207.41;5038119;28;45382;-64
2022/01/21 12:15:24;;;;;;;;;8.25;8.25;;;;;7.09;64.29;103206.50;5056372;28;45446;-68
2022/01/21 12:18:03;;;;;;;;;7.00;7.00;;;;;7.14;64.39;103197.69;5038177;28;45262;-66
2022/01/21 12:20:33;;;;;;;;;8.50;8.50;;;;;7.31;63.32;103211.81;5037945;28;46735;-69
2022/01/21 12:23:13;;;;;;;;;10.75;9.25;;;;;7.38;63.68;103200.31;5036903;28;45332;-69
2022/01/21 12:26:16;;;;;;;;;13.00;9.50;;;;;7.42;63.56;103198.53;5056265;28;45378;-66
2022/01/21 12:28:44;;;;;;;;;19.75;14.25;;;;;7.41;63.53;103176.47;5056095;28;45602;-70
2022/01/21 12:31:12;;;;;;;;;9.00;9.00;;;;;7.50;63.67;103187.06;5055858;28;45512;-68
2022/01/21 12:34:08;;;;;;;;;12.00;8.50;;;;;7.51;63.51;103174.69;5055707;28;45558;-67